Airfield :







YOU CAN JOIN US ON...

 
LOGIN :

Register | Disclaimer

   EN    FR    IT 

 









Legend :    VFR   Marginal VFR   IFR   Intensive IFR   Very Intensive IFR
Visi :
Ceiling :
>= 8 km
>= 3000ft
5 to 8 km
1000 to 3000 ft
1500m to 5 km
500 to 1000 ft
800 to 1500m
200 to 500 ft
< 800m
< 200 ft
Symbols :   Thunderstorms  Fog  Heavy snow  Heavy precipitations  Wind > 20 kt







- Airport Elevation : 172 ft
- IATA code : YYY


CYYY - Mont Joli

CURRENT METAR :
  • 200700Z 23009KT 15SM SKC 16/14 A2987 RMK SLP117 DENSITY ALT 500FT

EXPIRED METARs :
  • 200600Z 25010KT 15SM SKC 18/14 A2985 RMK SLP111 DENSITY ALT 700FT
  • 200500Z 27012KT 15SM SKC 18/14 A2984 RMK SLP106 DENSITY ALT 700FT
  • 200400Z 26012G18KT 15SM FEW085 19/15 A2983 RMK AC2 SLP102 DENSITY ALT 800FT

TAF TAF CYYY
Valid from the 20 at 02:00 until the 20 at 14:00 UTC


200139Z 2002/2014 22012KT P6SM -SHRA SCT030 BKN100
TEMPO 2002/2004 6SM -SHRA BR BKN020 OVC030
FM200400 25010KT P6SM BKN025
TEMPO 2004/2006 BKN020
FM200600 25010KT P6SM SCT020
BECMG 2012/2014 24012G22KT RMK NXT FCST BY 200800Z
No reported NOTAMs for that airfield.



MET'MAP, your aeronautical weather chart ! - Copyright ORBIFLY December 2007 - Disclaimer

ORBIFLY MET'MAP TEAM :

Programming & Development : Alexandra Zaïnal
Concept & Development : Baudouin d'Aumeries
Co-Development & Prog : Marc-Olivier Méhu
Technical & hardware support : Manuel Goepfert

Contact : metmap@orbifly.com




SOURCES & CREDITS :

   NOAA